createdAt,value
2018-07-17T00:04:07.164Z,68.20
2018-07-17T00:07:40.425Z,68.50
2018-07-17T00:11:13.881Z,68.70
2018-07-17T00:14:47.171Z,68.60
2018-07-17T00:18:20.467Z,68.60
2018-07-17T00:21:53.699Z,68.80
2018-07-17T00:25:26.938Z,68.90
2018-07-17T00:29:00.189Z,69.00
2018-07-17T00:32:33.468Z,69.20
2018-07-17T00:36:06.828Z,69.50
2018-07-17T00:43:13.127Z,69.80
2018-07-17T00:50:19.408Z,69.40
2018-07-17T00:53:52.701Z,69.60
2018-07-17T00:57:26.057Z,69.80
2018-07-17T01:00:58.655Z,69.90
2018-07-17T01:04:37.236Z,70.00
2018-07-17T01:11:54.220Z,70.80
2018-07-17T01:15:35.625Z,71.20
2018-07-17T01:19:08.914Z,71.60
2018-07-17T01:22:42.149Z,71.60
2018-07-17T01:26:15.416Z,72.20
2018-07-17T01:29:48.652Z,72.70
2018-07-17T01:33:21.928Z,72.80
2018-07-17T01:36:55.169Z,73.10
2018-07-17T01:40:28.440Z,73.30
2018-07-17T01:44:01.677Z,73.30
2018-07-17T01:47:34.934Z,73.30
2018-07-17T01:51:08.216Z,73.20
2018-07-17T01:54:41.510Z,73.30
2018-07-17T01:58:14.768Z,73.30
2018-07-17T02:05:21.044Z,73.30
2018-07-17T02:08:54.307Z,73.30
2018-07-17T02:12:27.568Z,73.40
2018-07-17T02:16:00.828Z,73.30
2018-07-17T02:19:34.110Z,73.40
2018-07-17T02:23:07.389Z,73.50
2018-07-17T02:26:40.801Z,73.60
2018-07-17T02:30:14.046Z,74.00
2018-07-17T02:33:47.304Z,74.30
2018-07-17T02:37:20.589Z,74.70
2018-07-17T02:40:53.857Z,75.00
2018-07-17T02:44:27.172Z,75.20
2018-07-17T02:48:00.390Z,75.20
2018-07-17T02:51:33.671Z,75.00
2018-07-17T02:55:07.050Z,75.10
2018-07-17T02:58:40.348Z,75.20
2018-07-17T03:02:14.116Z,75.30
2018-07-17T03:05:47.383Z,75.20
2018-07-17T03:09:20.640Z,75.10
2018-07-17T03:12:54.541Z,75.20
2018-07-17T03:16:27.775Z,75.20
2018-07-17T03:20:01.102Z,75.40
2018-07-17T03:23:34.413Z,75.20
2018-07-17T03:27:07.733Z,74.90
2018-07-17T03:30:40.961Z,74.70
2018-07-17T03:34:14.216Z,74.70
2018-07-17T03:37:47.457Z,74.60
2018-07-17T03:41:20.718Z,74.80
2018-07-17T03:44:53.940Z,74.90
2018-07-17T03:48:27.197Z,75.10
2018-07-17T03:52:00.449Z,75.00
2018-07-17T03:55:33.706Z,75.10
2018-07-17T04:02:40.206Z,75.40
2018-07-17T04:09:46.637Z,75.90
2018-07-17T04:13:19.972Z,76.10
2018-07-17T04:16:55.539Z,76.40
2018-07-17T04:20:28.865Z,76.60
2018-07-17T04:24:02.131Z,76.70
2018-07-17T04:27:35.379Z,76.80
2018-07-17T04:31:08.690Z,76.10
2018-07-17T04:34:41.941Z,75.60
2018-07-17T04:38:15.255Z,75.20
2018-07-17T04:41:48.516Z,75.00
2018-07-17T04:45:21.764Z,74.70
2018-07-17T04:48:55.018Z,74.70
2018-07-17T04:52:28.273Z,74.60
2018-07-17T04:56:01.907Z,74.60
2018-07-17T04:59:35.192Z,74.70
2018-07-17T05:03:08.535Z,74.50
2018-07-17T05:06:41.997Z,74.10
2018-07-17T05:10:15.246Z,73.80
2018-07-17T05:13:48.546Z,72.90
2018-07-17T05:17:21.881Z,72.80
2018-07-17T05:20:55.164Z,72.90
2018-07-17T05:24:28.460Z,72.90
2018-07-17T05:28:01.791Z,72.50
2018-07-17T05:31:35.052Z,72.40
2018-07-17T05:35:08.442Z,71.50
2018-07-17T05:38:41.829Z,71.10
2018-07-17T05:42:15.089Z,70.70
2018-07-17T05:45:48.437Z,70.20
2018-07-17T05:49:21.737Z,69.70
2018-07-17T05:52:55.002Z,68.90
2018-07-17T05:56:28.265Z,68.30
2018-07-17T06:00:01.515Z,67.60
2018-07-17T06:03:34.793Z,67.00
2018-07-17T06:07:08.041Z,66.80
2018-07-17T06:10:41.310Z,66.80
2018-07-17T06:14:14.556Z,66.50
2018-07-17T06:17:47.829Z,66.40
2018-07-17T06:21:21.100Z,66.20
2018-07-17T06:24:54.360Z,65.80
2018-07-17T06:28:27.609Z,64.90
2018-07-17T06:32:00.877Z,63.80
2018-07-17T06:35:34.145Z,63.30
2018-07-17T06:39:08.545Z,62.90
2018-07-17T06:42:42.005Z,62.50
2018-07-17T06:46:15.321Z,61.90
2018-07-17T06:49:48.577Z,61.10
2018-07-17T06:53:21.830Z,60.50
2018-07-17T06:56:55.090Z,60.00
2018-07-17T07:00:28.339Z,59.90
2018-07-17T07:04:02.242Z,59.70
2018-07-17T07:07:35.476Z,59.20
2018-07-17T07:11:08.792Z,58.60
2018-07-17T07:14:42.276Z,57.90
2018-07-17T07:18:15.578Z,57.60
2018-07-17T07:21:48.856Z,57.40
2018-07-17T07:25:22.125Z,57.10
2018-07-17T07:28:55.377Z,56.70
2018-07-17T07:32:28.636Z,56.20
2018-07-17T07:36:01.894Z,56.10
2018-07-17T07:39:35.167Z,56.30
2018-07-17T07:43:08.450Z,55.20
2018-07-17T07:50:14.725Z,53.90
2018-07-17T07:53:47.991Z,53.30
2018-07-17T07:57:21.253Z,52.90
2018-07-17T08:00:54.617Z,53.00
2018-07-17T08:04:27.888Z,53.20
2018-07-17T08:08:01.169Z,53.40
2018-07-17T08:11:34.434Z,52.40
2018-07-17T08:18:40.766Z,50.70
2018-07-17T08:22:14.016Z,49.20
2018-07-17T08:25:47.280Z,47.80
2018-07-17T08:29:20.550Z,47.70
2018-07-17T08:32:53.961Z,47.40
2018-07-17T08:36:27.233Z,47.20
2018-07-17T08:40:00.518Z,47.50
2018-07-17T08:43:33.829Z,47.00
2018-07-17T08:47:07.029Z,45.80
2018-07-17T08:50:40.308Z,45.10
2018-07-17T08:54:13.564Z,45.00
2018-07-17T08:57:46.808Z,45.00
2018-07-17T09:01:20.051Z,44.60
2018-07-17T09:08:26.374Z,44.00
2018-07-17T09:11:59.641Z,43.40
2018-07-17T09:15:32.911Z,42.90
2018-07-17T09:19:06.192Z,42.80
2018-07-17T09:22:39.438Z,42.80
2018-07-17T09:26:14.205Z,41.70
2018-07-17T09:29:47.460Z,41.20
2018-07-17T09:33:20.726Z,41.50
2018-07-17T09:36:53.974Z,40.80
2018-07-17T09:40:27.325Z,40.50
2018-07-17T09:44:00.569Z,40.40
2018-07-17T09:47:33.888Z,39.70
2018-07-17T09:51:07.721Z,39.50
2018-07-17T09:54:40.986Z,39.00
2018-07-17T09:58:14.253Z,37.00
2018-07-17T10:01:52.828Z,36.40
2018-07-17T10:05:26.082Z,35.70
2018-07-17T10:08:59.356Z,35.60
2018-07-17T10:12:32.621Z,35.70
2018-07-17T10:19:38.913Z,35.40
2018-07-17T10:33:51.206Z,35.20
2018-07-17T10:40:57.493Z,34.20
2018-07-17T10:44:30.735Z,34.60
2018-07-17T10:48:04.005Z,34.30
2018-07-17T10:55:10.268Z,33.50
2018-07-17T10:58:43.554Z,33.70
2018-07-17T11:02:16.840Z,33.50
2018-07-17T11:05:50.120Z,34.00
2018-07-17T11:09:23.356Z,33.30
2018-07-17T11:12:56.624Z,32.80
2018-07-17T11:16:29.893Z,30.70
2018-07-17T11:20:03.144Z,29.20
2018-07-17T11:23:36.445Z,29.60
2018-07-17T11:27:09.714Z,29.10
2018-07-17T11:30:42.973Z,27.70
2018-07-17T11:34:16.249Z,27.80
2018-07-17T11:37:49.488Z,27.30
2018-07-17T11:48:28.777Z,29.50
2018-07-17T11:52:02.026Z,29.70
2018-07-17T11:55:35.273Z,30.00
2018-07-17T11:59:08.627Z,29.80
2018-07-17T12:02:41.810Z,29.00
2018-07-17T12:06:15.069Z,29.40
2018-07-17T12:09:48.312Z,29.70
2018-07-17T12:13:21.587Z,29.30
2018-07-17T12:16:54.839Z,30.00
2018-07-17T12:20:28.192Z,29.80
2018-07-17T12:24:01.412Z,29.90
2018-07-17T12:27:34.703Z,29.50
2018-07-17T12:31:07.965Z,29.20
2018-07-17T12:34:41.225Z,28.80
2018-07-17T12:38:14.517Z,28.50
2018-07-17T12:41:47.761Z,28.10
2018-07-17T12:45:21.017Z,27.20
2018-07-17T12:48:54.273Z,27.90
2018-07-17T12:52:27.562Z,28.20
2018-07-17T12:56:00.822Z,28.20
2018-07-17T12:59:34.093Z,28.10
2018-07-17T13:17:19.654Z,28.60
2018-07-17T13:20:52.874Z,29.40
2018-07-17T13:31:32.160Z,28.50
2018-07-17T13:35:05.406Z,27.50
2018-07-17T13:38:38.669Z,27.50
2018-07-17T13:42:11.974Z,27.60
2018-07-17T13:45:45.229Z,27.30
2018-07-17T13:49:18.513Z,27.20
2018-07-17T13:52:51.797Z,27.00
2018-07-17T13:56:25.099Z,26.00
2018-07-17T13:59:58.371Z,25.70
2018-07-17T14:03:31.647Z,25.60
2018-07-17T14:07:04.915Z,25.20
2018-07-17T14:10:38.180Z,25.80
2018-07-17T14:14:11.569Z,26.00
2018-07-17T14:21:17.826Z,25.30
2018-07-17T14:24:51.073Z,24.90
2018-07-17T14:28:24.352Z,24.30
2018-07-17T14:31:57.632Z,24.00
2018-07-17T14:35:30.903Z,23.40
2018-07-17T14:39:07.756Z,22.60
2018-07-17T14:42:41.028Z,21.80
2018-07-17T14:46:14.297Z,22.50
2018-07-17T14:49:47.553Z,23.10
2018-07-17T14:56:53.826Z,23.60
2018-07-17T15:00:27.075Z,23.40
2018-07-17T15:04:00.333Z,23.00
2018-07-17T15:07:33.598Z,23.10
2018-07-17T15:11:06.856Z,23.00
2018-07-17T15:14:40.100Z,22.00
2018-07-17T15:18:13.380Z,22.20
2018-07-17T15:21:46.676Z,22.60
2018-07-17T15:25:19.952Z,22.20
2018-07-17T15:28:53.218Z,21.00
2018-07-17T15:32:26.538Z,22.20
2018-07-17T15:35:59.801Z,23.00
2018-07-17T15:39:33.056Z,23.50
2018-07-17T15:43:07.079Z,23.70
2018-07-17T15:46:40.350Z,23.40
2018-07-17T15:50:13.652Z,23.10
2018-07-17T15:53:46.921Z,22.80
2018-07-17T15:57:20.194Z,22.70
2018-07-17T16:00:53.513Z,22.90
2018-07-17T16:04:26.780Z,23.30
2018-07-17T16:08:00.049Z,23.50
2018-07-17T16:11:33.332Z,23.60
2018-07-17T16:15:06.779Z,23.50
2018-07-17T16:18:40.029Z,23.40
2018-07-17T16:22:13.288Z,23.00
2018-07-17T16:25:46.566Z,23.00
2018-07-17T16:29:19.854Z,23.20
2018-07-17T16:32:53.117Z,23.60
2018-07-17T16:36:26.381Z,24.40
2018-07-17T16:39:59.657Z,25.50
2018-07-17T16:43:32.947Z,25.80
2018-07-17T16:47:06.222Z,25.90
2018-07-17T16:50:39.501Z,26.20
2018-07-17T16:54:12.793Z,26.50
2018-07-17T16:57:46.051Z,26.90
2018-07-17T17:01:19.455Z,26.80
2018-07-17T17:04:52.759Z,27.50
2018-07-17T17:08:26.042Z,26.60
2018-07-17T17:11:59.309Z,26.90
2018-07-17T17:15:32.565Z,27.30
2018-07-17T17:19:06.236Z,27.80
2018-07-17T17:22:39.525Z,28.20
2018-07-17T17:26:12.809Z,28.30
2018-07-17T17:29:46.111Z,28.60
2018-07-17T17:33:19.387Z,28.90
2018-07-17T17:36:52.657Z,29.30
2018-07-17T17:40:25.948Z,29.90
2018-07-17T17:43:59.214Z,30.40
2018-07-17T17:47:32.453Z,31.00
2018-07-17T17:51:05.908Z,31.50
2018-07-17T17:54:39.186Z,32.10
2018-07-17T17:58:12.448Z,32.50
2018-07-17T18:01:45.752Z,32.80
2018-07-17T18:05:19.040Z,32.90
2018-07-17T18:08:52.313Z,33.20
2018-07-17T18:12:25.568Z,33.20
2018-07-17T18:15:58.854Z,33.30
2018-07-17T18:19:32.214Z,33.40
2018-07-17T18:23:05.436Z,33.60
2018-07-17T18:26:38.752Z,33.80
2018-07-17T18:30:12.101Z,34.30
2018-07-17T18:33:45.468Z,34.80
2018-07-17T18:37:18.779Z,35.20
2018-07-17T18:40:52.045Z,35.60
2018-07-17T18:44:26.354Z,36.00
2018-07-17T18:47:59.795Z,36.30
2018-07-17T18:51:34.618Z,36.40
2018-07-17T18:55:07.908Z,37.30
2018-07-17T18:58:41.741Z,36.90
2018-07-17T19:02:16.853Z,37.10
2018-07-17T19:05:50.258Z,37.40
2018-07-17T19:09:23.644Z,37.50
2018-07-17T19:16:30.018Z,37.90
2018-07-17T19:20:03.371Z,38.10
2018-07-17T19:23:36.725Z,38.10
2018-07-17T19:27:10.061Z,38.10
2018-07-17T19:30:43.386Z,38.30
2018-07-17T19:34:16.762Z,38.50
2018-07-17T19:37:50.605Z,38.60
2018-07-17T19:41:23.899Z,38.70
2018-07-17T19:44:57.279Z,39.00
2018-07-17T19:48:30.712Z,39.20
2018-07-17T19:52:05.337Z,40.00
2018-07-17T19:55:38.569Z,39.60
2018-07-17T19:59:11.831Z,39.70
2018-07-17T20:02:45.090Z,40.00
2018-07-17T20:06:18.423Z,40.10
2018-07-17T20:09:51.707Z,40.30
2018-07-17T20:13:25.266Z,40.40
2018-07-17T20:17:01.323Z,40.70
2018-07-17T20:20:35.692Z,40.80
2018-07-17T20:24:08.965Z,40.80
2018-07-17T20:27:42.250Z,41.00
2018-07-17T20:31:15.581Z,41.10
2018-07-17T20:34:48.765Z,41.20
2018-07-17T20:38:22.117Z,41.40
2018-07-17T20:41:55.385Z,41.50
2018-07-17T20:45:28.846Z,41.60
2018-07-17T20:49:02.228Z,41.80
2018-07-17T20:52:35.731Z,42.00
2018-07-17T20:56:09.323Z,42.10
2018-07-17T20:59:42.622Z,42.40
2018-07-17T21:03:15.893Z,42.30
2018-07-17T21:06:49.489Z,42.30
2018-07-17T21:10:22.785Z,43.00
2018-07-17T21:13:56.330Z,43.20
2018-07-17T21:17:29.682Z,43.40
2018-07-17T21:21:02.992Z,43.50
2018-07-17T21:24:36.663Z,43.70
2018-07-17T21:28:10.095Z,43.80
2018-07-17T21:31:43.333Z,43.90
2018-07-17T21:35:16.806Z,44.00
2018-07-17T21:38:50.069Z,44.10
2018-07-17T21:42:23.331Z,44.20
2018-07-17T21:45:56.594Z,44.30
2018-07-17T21:49:29.889Z,44.30
2018-07-17T21:53:03.174Z,44.50
2018-07-17T21:56:36.520Z,44.50
2018-07-17T22:00:10.733Z,45.40
2018-07-17T22:03:44.280Z,44.70
2018-07-17T22:07:17.550Z,44.80
2018-07-17T22:10:50.809Z,44.80
2018-07-17T22:17:57.121Z,44.70
2018-07-17T22:21:30.437Z,44.60
2018-07-17T22:25:03.688Z,44.80
2018-07-17T22:28:36.969Z,44.60
2018-07-17T22:32:10.235Z,44.70
2018-07-17T22:35:43.601Z,44.80
2018-07-17T22:39:16.854Z,45.10
2018-07-17T22:42:50.130Z,45.30
2018-07-17T22:46:23.410Z,45.60
2018-07-17T22:49:56.652Z,45.90
2018-07-17T22:53:29.917Z,46.00
2018-07-17T22:57:03.200Z,46.10
2018-07-17T23:04:09.493Z,46.90
2018-07-17T23:07:42.730Z,46.40
2018-07-17T23:11:15.972Z,46.40
2018-07-17T23:14:49.279Z,46.50
2018-07-17T23:18:22.557Z,46.50
2018-07-17T23:21:55.835Z,46.50
2018-07-17T23:25:30.577Z,46.40
2018-07-17T23:29:03.932Z,46.30
2018-07-17T23:32:37.281Z,46.00
2018-07-17T23:36:10.594Z,45.90
2018-07-17T23:43:17.177Z,45.70
2018-07-17T23:46:50.424Z,45.80
2018-07-17T23:50:23.683Z,45.90
2018-07-17T23:53:56.956Z,46.00
2018-07-17T23:57:30.201Z,46.30
